PWSweather.com
Personal Weather Stations
Station Observations
KTXROWLE6
Ravens Nest, Rowlett, TX 75089

Ravens NestRowlett, TX 75089

Lat: 32.93105, Lon: -96.57368

Elevation: 556

Station Type: Davis Vantage Pro2 6152

http://rowlett.ws

High Low Average
Temperature 59.7°F15.4°F 48.2°F9.0°F 53.8°F12.1°F
Dew Point 40.9°F4.9°F 35.0°F1.7°F 39.2°F4.0°F
Winds 1.0 mph E1.6 mph E Calm Calm Calm Calm
Wind Gusts 3.0 mph4.8 mph -- 0.8 mph1.3 mph
Humidity 64% 48% 58%
Pressure 30.40 in1029.50 in 30.32 in1026.80 in -
Precipitation 0.00 in0.00 in - -
Hour Temp Dew Point Humidity Winds Wind Gusts Pressure Precip Precip Rate Daily Precip Total
12:00 AM 63.4°F17.4°C 55.6°F13.1°C 76% 2.0 mph NW3.2 kmh NW 4.0 mph6.4 kmh 30.17 in1021.7 mb 0.00 in0.0 mm 0.00 in/hr0.0 mm/hr 0.00 in0.0 mm
12:05 AM 63.3°F17.4°C 54.8°F12.7°C 74% 1.0 mph NW1.6 kmh NW 4.0 mph6.4 kmh 30.17 in1021.7 mb 0.00 in0.0 mm 0.00 in/hr0.0 mm/hr 0.00 in0.0 mm
12:10 AM 63.2°F17.3°C 54.3°F12.4°C 73% Calm Calm 3.0 mph4.8 kmh 30.17 in1021.7 mb 0.00 in0.0 mm 0.00 in/hr0.0 mm/hr 0.00 in0.0 mm
12:15 AM 63.0°F17.2°C 53.8°F12.1°C 72% Calm Calm 3.0 mph4.8 kmh 30.17 in1021.7 mb 0.00 in0.0 mm 0.00 in/hr0.0 mm/hr 0.00 in0.0 mm
12:20 AM 62.8°F17.1°C 53.2°F11.8°C 71% 3.0 mph NNW4.8 kmh NNW 3.0 mph4.8 kmh 30.17 in1021.7 mb 0.00 in0.0 mm 0.00 in/hr0.0 mm/hr 0.00 in0.0 mm
12:25 AM 62.6°F17.0°C 52.2°F11.2°C 69% 1.0 mph NNW1.6 kmh NNW 4.0 mph6.4 kmh 30.17 in1021.7 mb 0.00 in0.0 mm 0.00 in/hr0.0 mm/hr 0.00 in0.0 mm
12:30 AM 62.5°F16.9°C 51.7°F10.9°C 68% Calm Calm 4.0 mph6.4 kmh 30.17 in1021.7 mb 0.00 in0.0 mm 0.00 in/hr0.0 mm/hr 0.00 in0.0 mm
12:35 AM 62.4°F16.9°C 51.2°F10.7°C 67% Calm Calm 3.0 mph4.8 kmh 30.17 in1021.7 mb 0.00 in0.0 mm 0.00 in/hr0.0 mm/hr 0.00 in0.0 mm
12:40 AM 62.2°F16.8°C 50.6°F10.3°C 66% Calm Calm 2.0 mph3.2 kmh 30.17 in1021.7 mb 0.00 in0.0 mm 0.00 in/hr0.0 mm/hr 0.00 in0.0 mm
12:45 AM 62.0°F16.7°C 50.0°F10.0°C 65% 1.0 mph NNW1.6 kmh NNW 2.0 mph3.2 kmh 30.17 in1021.7 mb 0.00 in0.0 mm 0.00 in/hr0.0 mm/hr 0.00 in0.0 mm
12:50 AM 61.9°F16.6°C 49.5°F9.7°C 64% Calm Calm 2.0 mph3.2 kmh 30.17 in1021.7 mb 0.00 in0.0 mm 0.00 in/hr0.0 mm/hr 0.00 in0.0 mm
12:55 AM 61.8°F16.6°C 49.0°F9.4°C 63% 2.0 mph NNW3.2 kmh NNW 2.0 mph3.2 kmh 30.17 in1021.7 mb 0.00 in0.0 mm 0.00 in/hr0.0 mm/hr 0.00 in0.0 mm
01:00 AM 61.8°F16.6°C 48.6°F9.2°C 62% Calm Calm 2.0 mph3.2 kmh 30.18 in1022.0 mb 0.00 in0.0 mm 0.00 in/hr0.0 mm/hr 0.00 in0.0 mm
01:05 AM 61.8°F16.6°C 48.2°F9.0°C 61% Calm Calm 2.0 mph3.2 kmh 30.18 in1022.0 mb 0.00 in0.0 mm 0.00 in/hr0.0 mm/hr 0.00 in0.0 mm
01:10 AM 61.7°F16.5°C 48.1°F8.9°C 61% Calm Calm 4.0 mph6.4 kmh 30.17 in1021.7 mb 0.00 in0.0 mm 0.00 in/hr0.0 mm/hr 0.00 in0.0 mm
01:15 AM 61.6°F16.4°C 48.0°F8.9°C 61% 1.0 mph NNW1.6 kmh NNW 3.0 mph4.8 kmh 30.18 in1022.0 mb 0.00 in0.0 mm 0.00 in/hr0.0 mm/hr 0.00 in0.0 mm
01:20 AM 61.7°F16.5°C 47.6°F8.7°C 60% Calm Calm 3.0 mph4.8 kmh 30.17 in1021.7 mb 0.00 in0.0 mm 0.00 in/hr0.0 mm/hr 0.00 in0.0 mm
01:25 AM 61.6°F16.4°C 47.5°F8.6°C 60% Calm Calm 3.0 mph4.8 kmh 30.17 in1021.7 mb 0.00 in0.0 mm 0.00 in/hr0.0 mm/hr 0.00 in0.0 mm
01:30 AM 61.4°F16.3°C 47.8°F8.8°C 61% 2.0 mph NNW3.2 kmh NNW 3.0 mph4.8 kmh 30.17 in1021.7 mb 0.00 in0.0 mm 0.00 in/hr0.0 mm/hr 0.00 in0.0 mm
01:35 AM 61.2°F16.2°C 47.1°F8.4°C 60% 2.0 mph NNW3.2 kmh NNW 3.0 mph4.8 kmh 30.18 in1022.0 mb 0.00 in0.0 mm 0.00 in/hr0.0 mm/hr 0.00 in0.0 mm
01:40 AM 61.1°F16.2°C 47.1°F8.4°C 60% 1.0 mph NNW1.6 kmh NNW 4.0 mph6.4 kmh 30.18 in1022.0 mb 0.00 in0.0 mm 0.00 in/hr0.0 mm/hr 0.00 in0.0 mm
01:45 AM 61.2°F16.2°C 46.7°F8.2°C 59% 2.0 mph NNW3.2 kmh NNW 3.0 mph4.8 kmh 30.18 in1022.0 mb 0.00 in0.0 mm 0.00 in/hr0.0 mm/hr 0.00 in0.0 mm
01:50 AM 61.5°F16.4°C 46.5°F8.1°C 58% Calm Calm 3.0 mph4.8 kmh 30.18 in1022.0 mb 0.00 in0.0 mm 0.00 in/hr0.0 mm/hr 0.00 in0.0 mm
01:55 AM 61.6°F16.4°C 46.6°F8.1°C 58% 3.0 mph NNW4.8 kmh NNW 3.0 mph4.8 kmh 30.18 in1022.0 mb 0.00 in0.0 mm 0.00 in/hr0.0 mm/hr 0.00 in0.0 mm
02:00 AM 61.6°F16.4°C 46.6°F8.1°C 58% 2.0 mph NNW3.2 kmh NNW 3.0 mph4.8 kmh 30.18 in1022.0 mb 0.00 in0.0 mm 0.00 in/hr0.0 mm/hr 0.00 in0.0 mm
02:05 AM 61.5°F16.4°C 46.5°F8.1°C 58% 2.0 mph NNW3.2 kmh NNW 3.0 mph4.8 kmh 30.18 in1022.0 mb 0.00 in0.0 mm 0.00 in/hr0.0 mm/hr 0.00 in0.0 mm
02:10 AM 61.3°F16.3°C 46.3°F7.9°C 58% 3.0 mph N4.8 kmh N 4.0 mph6.4 kmh 30.18 in1022.0 mb 0.00 in0.0 mm 0.00 in/hr0.0 mm/hr 0.00 in0.0 mm
02:15 AM 61.3°F16.3°C 46.3°F7.9°C 58% 3.0 mph 4.8 kmh 5.0 mph8.0 kmh 30.18 in1022.0 mb 0.00 in0.0 mm 0.00 in/hr0.0 mm/hr 0.00 in0.0 mm
02:20 AM 61.3°F16.3°C 45.9°F7.7°C 57% 2.0 mph N3.2 kmh N 5.0 mph8.0 kmh 30.18 in1022.0 mb 0.00 in0.0 mm 0.00 in/hr0.0 mm/hr 0.00 in0.0 mm
02:25 AM 61.4°F16.3°C 46.0°F7.8°C 57% 3.0 mph N4.8 kmh N 4.0 mph6.4 kmh 30.18 in1022.0 mb 0.00 in0.0 mm 0.00 in/hr0.0 mm/hr 0.00 in0.0 mm
02:30 AM 61.5°F16.4°C 46.1°F7.8°C 57% 4.0 mph N6.4 kmh N 5.0 mph8.0 kmh 30.18 in1022.0 mb 0.00 in0.0 mm 0.00 in/hr0.0 mm/hr 0.00 in0.0 mm
02:35 AM 61.6°F16.4°C 45.7°F7.6°C 56% 4.0 mph N6.4 kmh N 4.0 mph6.4 kmh 30.18 in1022.0 mb 0.00 in0.0 mm 0.00 in/hr0.0 mm/hr 0.00 in0.0 mm
02:40 AM 61.8°F16.6°C 45.4°F7.4°C 55% 2.0 mph N3.2 kmh N 6.0 mph9.7 kmh 30.18 in1022.0 mb 0.00 in0.0 mm 0.00 in/hr0.0 mm/hr 0.00 in0.0 mm
02:45 AM 61.9°F16.6°C 45.5°F7.5°C 55% 2.0 mph N3.2 kmh N 6.0 mph9.7 kmh 30.18 in1022.0 mb 0.00 in0.0 mm 0.00 in/hr0.0 mm/hr 0.00 in0.0 mm
02:50 AM 61.3°F16.3°C 45.9°F7.7°C 57% 2.0 mph N3.2 kmh N 4.0 mph6.4 kmh 30.18 in1022.0 mb 0.00 in0.0 mm 0.00 in/hr0.0 mm/hr 0.00 in0.0 mm
02:55 AM 60.3°F15.7°C 45.9°F7.7°C 59% 2.0 mph NNW3.2 kmh NNW 5.0 mph8.0 kmh 30.18 in1022.0 mb 0.00 in0.0 mm 0.00 in/hr0.0 mm/hr 0.00 in0.0 mm
03:00 AM 59.7°F15.4°C 45.7°F7.6°C 60% 1.0 mph NNW1.6 kmh NNW 4.0 mph6.4 kmh 30.18 in1022.0 mb 0.00 in0.0 mm 0.00 in/hr0.0 mm/hr 0.00 in0.0 mm
03:05 AM 59.4°F15.2°C 45.9°F7.7°C 61% 2.0 mph NNW3.2 kmh NNW 6.0 mph9.7 kmh 30.18 in1022.0 mb 0.00 in0.0 mm 0.00 in/hr0.0 mm/hr 0.00 in0.0 mm
03:10 AM 59.5°F15.3°C 45.6°F7.6°C 60% 4.0 mph NNW6.4 kmh NNW 5.0 mph8.0 kmh 30.18 in1022.0 mb 0.00 in0.0 mm 0.00 in/hr0.0 mm/hr 0.00 in0.0 mm
03:15 AM 59.5°F15.3°C 46.0°F7.8°C 61% 3.0 mph NNW4.8 kmh NNW 4.0 mph6.4 kmh 30.18 in1022.0 mb 0.00 in0.0 mm 0.00 in/hr0.0 mm/hr 0.00 in0.0 mm
03:20 AM 59.1°F15.1°C 45.6°F7.6°C 61% 2.0 mph NNW3.2 kmh NNW 4.0 mph6.4 kmh 30.18 in1022.0 mb 0.00 in0.0 mm 0.00 in/hr0.0 mm/hr 0.00 in0.0 mm
03:25 AM 58.9°F14.9°C 45.9°F7.7°C 62% 2.0 mph NNW3.2 kmh NNW 4.0 mph6.4 kmh 30.18 in1022.0 mb 0.00 in0.0 mm 0.00 in/hr0.0 mm/hr 0.00 in0.0 mm
03:30 AM 58.7°F14.8°C 45.7°F7.6°C 62% 3.0 mph NNW4.8 kmh NNW 4.0 mph6.4 kmh 30.18 in1022.0 mb 0.00 in0.0 mm 0.00 in/hr0.0 mm/hr 0.00 in0.0 mm
03:35 AM 58.3°F14.6°C 45.7°F7.6°C 63% 1.0 mph NNW1.6 kmh NNW 4.0 mph6.4 kmh 30.18 in1022.0 mb 0.00 in0.0 mm 0.00 in/hr0.0 mm/hr 0.00 in0.0 mm
03:40 AM 58.0°F14.4°C 45.8°F7.7°C 64% 4.0 mph NNW6.4 kmh NNW 4.0 mph6.4 kmh 30.18 in1022.0 mb 0.00 in0.0 mm 0.00 in/hr0.0 mm/hr 0.00 in0.0 mm
03:45 AM 57.7°F14.3°C 46.0°F7.8°C 65% 1.0 mph NNW1.6 kmh NNW 4.0 mph6.4 kmh 30.18 in1022.0 mb 0.00 in0.0 mm 0.00 in/hr0.0 mm/hr 0.00 in0.0 mm
03:50 AM 57.4°F14.1°C 46.1°F7.8°C 66% 4.0 mph NNW6.4 kmh NNW 5.0 mph8.0 kmh 30.19 in1022.4 mb 0.00 in0.0 mm 0.00 in/hr0.0 mm/hr 0.00 in0.0 mm
03:55 AM 57.1°F13.9°C 45.8°F7.7°C 66% 3.0 mph NNW4.8 kmh NNW 5.0 mph8.0 kmh 30.19 in1022.4 mb 0.00 in0.0 mm 0.00 in/hr0.0 mm/hr 0.00 in0.0 mm
04:00 AM 56.9°F13.8°C 46.0°F7.8°C 67% 4.0 mph NNW6.4 kmh NNW 5.0 mph8.0 kmh 30.19 in1022.4 mb 0.00 in0.0 mm 0.00 in/hr0.0 mm/hr 0.00 in0.0 mm
04:05 AM 56.7°F13.7°C 45.8°F7.7°C 67% 3.0 mph NNW4.8 kmh NNW 5.0 mph8.0 kmh 30.19 in1022.4 mb 0.00 in0.0 mm 0.00 in/hr0.0 mm/hr 0.00 in0.0 mm
04:10 AM 56.6°F13.7°C 45.7°F7.6°C 67% 3.0 mph NW4.8 kmh NW 5.0 mph8.0 kmh 30.19 in1022.4 mb 0.00 in0.0 mm 0.00 in/hr0.0 mm/hr 0.00 in0.0 mm
04:15 AM 56.6°F13.7°C 45.7°F7.6°C 67% 3.0 mph NW4.8 kmh NW 4.0 mph6.4 kmh 30.19 in1022.4 mb 0.00 in0.0 mm 0.00 in/hr0.0 mm/hr 0.00 in0.0 mm
04:20 AM 56.5°F13.6°C 45.6°F7.6°C 67% 3.0 mph NW4.8 kmh NW 5.0 mph8.0 kmh 30.19 in1022.4 mb 0.00 in0.0 mm 0.00 in/hr0.0 mm/hr 0.00 in0.0 mm
04:25 AM 56.5°F13.6°C 45.2°F7.3°C 66% 2.0 mph NW3.2 kmh NW 4.0 mph6.4 kmh 30.20 in1022.7 mb 0.00 in0.0 mm 0.00 in/hr0.0 mm/hr 0.00 in0.0 mm
04:30 AM 56.5°F13.6°C 45.2°F7.3°C 66% 2.0 mph NW3.2 kmh NW 4.0 mph6.4 kmh 30.20 in1022.7 mb 0.00 in0.0 mm 0.00 in/hr0.0 mm/hr 0.00 in0.0 mm
04:35 AM 56.5°F13.6°C 45.2°F7.3°C 66% Calm Calm 3.0 mph4.8 kmh 30.20 in1022.7 mb 0.00 in0.0 mm 0.00 in/hr0.0 mm/hr 0.00 in0.0 mm
04:40 AM 56.4°F13.6°C 44.7°F7.1°C 65% 1.0 mph NW1.6 kmh NW 3.0 mph4.8 kmh 30.20 in1022.7 mb 0.00 in0.0 mm 0.00 in/hr0.0 mm/hr 0.00 in0.0 mm
04:45 AM 56.3°F13.5°C 44.6°F7.0°C 65% 1.0 mph NW1.6 kmh NW 4.0 mph6.4 kmh 30.20 in1022.7 mb 0.00 in0.0 mm 0.00 in/hr0.0 mm/hr 0.00 in0.0 mm
04:50 AM 56.3°F13.5°C 44.6°F7.0°C 65% 1.0 mph NW1.6 kmh NW 4.0 mph6.4 kmh 30.20 in1022.7 mb 0.00 in0.0 mm 0.00 in/hr0.0 mm/hr 0.00 in0.0 mm
04:55 AM 56.5°F13.6°C 44.0°F6.7°C 63% 3.0 mph NW4.8 kmh NW 4.0 mph6.4 kmh 30.21 in1023.0 mb 0.00 in0.0 mm 0.00 in/hr0.0 mm/hr 0.00 in0.0 mm
05:00 AM 57.0°F13.9°C 44.1°F6.7°C 62% 3.0 mph N4.8 kmh N 5.0 mph8.0 kmh 30.21 in1023.0 mb 0.00 in0.0 mm 0.00 in/hr0.0 mm/hr 0.00 in0.0 mm
05:05 AM 57.5°F14.2°C 43.7°F6.5°C 60% 3.0 mph NNW4.8 kmh NNW 10.0 mph16.1 kmh 30.21 in1023.0 mb 0.00 in0.0 mm 0.00 in/hr0.0 mm/hr 0.00 in0.0 mm
05:10 AM 57.8°F14.3°C 44.0°F6.7°C 60% 4.0 mph NNW6.4 kmh NNW 6.0 mph9.7 kmh 30.21 in1023.0 mb 0.00 in0.0 mm 0.00 in/hr0.0 mm/hr 0.00 in0.0 mm
05:15 AM 57.9°F14.4°C 44.0°F6.7°C 60% 4.0 mph NNW6.4 kmh NNW 6.0 mph9.7 kmh 30.21 in1023.0 mb 0.00 in0.0 mm 0.00 in/hr0.0 mm/hr 0.00 in0.0 mm
05:20 AM 58.0°F14.4°C 43.7°F6.5°C 59% 4.0 mph NNW6.4 kmh NNW 8.0 mph12.9 kmh 30.21 in1023.0 mb 0.00 in0.0 mm 0.00 in/hr0.0 mm/hr 0.00 in0.0 mm
05:25 AM 58.0°F14.4°C 43.7°F6.5°C 59% 4.0 mph N6.4 kmh N 9.0 mph14.5 kmh 30.21 in1023.0 mb 0.00 in0.0 mm 0.00 in/hr0.0 mm/hr 0.00 in0.0 mm
05:30 AM 58.0°F14.4°C 43.7°F6.5°C 59% 4.0 mph NNW6.4 kmh NNW 7.0 mph11.3 kmh 30.22 in1023.4 mb 0.00 in0.0 mm 0.00 in/hr0.0 mm/hr 0.00 in0.0 mm
05:35 AM 57.9°F14.4°C 43.6°F6.4°C 59% 1.0 mph N1.6 kmh N 7.0 mph11.3 kmh 30.22 in1023.4 mb 0.00 in0.0 mm 0.00 in/hr0.0 mm/hr 0.00 in0.0 mm
05:40 AM 57.8°F14.3°C 44.0°F6.7°C 60% 4.0 mph N6.4 kmh N 7.0 mph11.3 kmh 30.22 in1023.4 mb 0.00 in0.0 mm 0.00 in/hr0.0 mm/hr 0.00 in0.0 mm
05:45 AM 57.6°F14.2°C 43.8°F6.6°C 60% 1.0 mph N1.6 kmh N 5.0 mph8.0 kmh 30.22 in1023.4 mb 0.00 in0.0 mm 0.00 in/hr0.0 mm/hr 0.00 in0.0 mm
05:50 AM 57.4°F14.1°C 44.0°F6.7°C 61% Calm Calm 4.0 mph6.4 kmh 30.22 in1023.4 mb 0.00 in0.0 mm 0.00 in/hr0.0 mm/hr 0.00 in0.0 mm
05:55 AM 57.2°F14.0°C 43.8°F6.6°C 61% 3.0 mph NNW4.8 kmh NNW 5.0 mph8.0 kmh 30.23 in1023.7 mb 0.00 in0.0 mm 0.00 in/hr0.0 mm/hr 0.00 in0.0 mm
06:00 AM 57.0°F13.9°C 44.1°F6.7°C 62% 1.0 mph NNW1.6 kmh NNW 3.0 mph4.8 kmh 30.23 in1023.7 mb 0.00 in0.0 mm 0.00 in/hr0.0 mm/hr 0.00 in0.0 mm
06:05 AM 56.9°F13.8°C 44.0°F6.7°C 62% 4.0 mph W6.4 kmh W 7.0 mph11.3 kmh 30.23 in1023.7 mb 0.00 in0.0 mm 0.00 in/hr0.0 mm/hr 0.00 in0.0 mm
06:10 AM 56.9°F13.8°C 44.0°F6.7°C 62% Calm Calm 4.0 mph6.4 kmh 30.23 in1023.7 mb 0.00 in0.0 mm 0.00 in/hr0.0 mm/hr 0.00 in0.0 mm
06:15 AM 56.8°F13.8°C 43.9°F6.6°C 62% 2.0 mph ENE3.2 kmh ENE 5.0 mph8.0 kmh 30.24 in1024.0 mb 0.00 in0.0 mm 0.00 in/hr0.0 mm/hr 0.00 in0.0 mm
06:20 AM 56.7°F13.7°C 43.8°F6.6°C 62% 2.0 mph NW3.2 kmh NW 4.0 mph6.4 kmh 30.24 in1024.0 mb 0.00 in0.0 mm 0.00 in/hr0.0 mm/hr 0.00 in0.0 mm
06:25 AM 56.7°F13.7°C 43.8°F6.6°C 62% Calm Calm 5.0 mph8.0 kmh 30.24 in1024.0 mb 0.00 in0.0 mm 0.00 in/hr0.0 mm/hr 0.00 in0.0 mm
06:30 AM 56.5°F13.6°C 43.6°F6.4°C 62% Calm Calm 3.0 mph4.8 kmh 30.24 in1024.0 mb 0.00 in0.0 mm 0.00 in/hr0.0 mm/hr 0.00 in0.0 mm
06:35 AM 56.4°F13.6°C 43.5°F6.4°C 62% 1.0 mph NNW1.6 kmh NNW 3.0 mph4.8 kmh 30.24 in1024.0 mb 0.00 in0.0 mm 0.00 in/hr0.0 mm/hr 0.00 in0.0 mm
06:40 AM 56.2°F13.4°C 43.7°F6.5°C 63% 1.0 mph NW1.6 kmh NW 3.0 mph4.8 kmh 30.24 in1024.0 mb 0.00 in0.0 mm 0.00 in/hr0.0 mm/hr 0.00 in0.0 mm
06:45 AM 56.1°F13.4°C 43.6°F6.4°C 63% Calm Calm 4.0 mph6.4 kmh 30.24 in1024.0 mb 0.00 in0.0 mm 0.00 in/hr0.0 mm/hr 0.00 in0.0 mm
06:50 AM 56.0°F13.3°C 43.5°F6.4°C 63% 1.0 mph NNW1.6 kmh NNW 4.0 mph6.4 kmh 30.25 in1024.4 mb 0.00 in0.0 mm 0.00 in/hr0.0 mm/hr 0.00 in0.0 mm
06:55 AM 55.9°F13.3°C 43.9°F6.6°C 64% Calm Calm 4.0 mph6.4 kmh 30.25 in1024.4 mb 0.00 in0.0 mm 0.00 in/hr0.0 mm/hr 0.00 in0.0 mm
07:00 AM 55.7°F13.2°C 43.7°F6.5°C 64% Calm Calm 2.0 mph3.2 kmh 30.25 in1024.4 mb 0.00 in0.0 mm 0.00 in/hr0.0 mm/hr 0.00 in0.0 mm
07:05 AM 55.5°F13.1°C 43.5°F6.4°C 64% 1.0 mph NNW1.6 kmh NNW 3.0 mph4.8 kmh 30.25 in1024.4 mb 0.00 in0.0 mm 0.00 in/hr0.0 mm/hr 0.00 in0.0 mm
07:10 AM 55.3°F12.9°C 43.7°F6.5°C 65% 4.0 mph NNW6.4 kmh NNW 4.0 mph6.4 kmh 30.25 in1024.4 mb 0.00 in0.0 mm 0.00 in/hr0.0 mm/hr 0.00 in0.0 mm
07:15 AM 55.2°F12.9°C 43.6°F6.4°C 65% 1.0 mph NNW1.6 kmh NNW 4.0 mph6.4 kmh 30.25 in1024.4 mb 0.00 in0.0 mm 0.00 in/hr0.0 mm/hr 0.00 in0.0 mm
07:20 AM 55.1°F12.8°C 43.5°F6.4°C 65% 1.0 mph NNW1.6 kmh NNW 3.0 mph4.8 kmh 30.26 in1024.7 mb 0.00 in0.0 mm 0.00 in/hr0.0 mm/hr 0.00 in0.0 mm
07:25 AM 55.0°F12.8°C 43.4°F6.3°C 65% Calm Calm 4.0 mph6.4 kmh 30.26 in1024.7 mb 0.00 in0.0 mm 0.00 in/hr0.0 mm/hr 0.00 in0.0 mm
07:30 AM 54.9°F12.7°C 43.3°F6.3°C 65% Calm Calm 3.0 mph4.8 kmh 30.26 in1024.7 mb 0.00 in0.0 mm 0.00 in/hr0.0 mm/hr 0.00 in0.0 mm
07:35 AM 54.8°F12.7°C 43.6°F6.4°C 66% 1.0 mph NNW1.6 kmh NNW 6.0 mph9.7 kmh 30.26 in1024.7 mb 0.00 in0.0 mm 0.00 in/hr0.0 mm/hr 0.00 in0.0 mm
07:40 AM 54.7°F12.6°C 43.5°F6.4°C 66% Calm Calm 3.0 mph4.8 kmh 30.27 in1025.1 mb 0.00 in0.0 mm 0.00 in/hr0.0 mm/hr 0.00 in0.0 mm
07:45 AM 54.6°F12.6°C 43.4°F6.3°C 66% 2.0 mph N3.2 kmh N 6.0 mph9.7 kmh 30.27 in1025.1 mb 0.00 in0.0 mm 0.00 in/hr0.0 mm/hr 0.00 in0.0 mm
07:50 AM 54.6°F12.6°C 43.4°F6.3°C 66% Calm Calm 4.0 mph6.4 kmh 30.27 in1025.1 mb 0.00 in0.0 mm 0.00 in/hr0.0 mm/hr 0.00 in0.0 mm
07:55 AM 54.6°F12.6°C 43.4°F6.3°C 66% 3.0 mph NNE4.8 kmh NNE 6.0 mph9.7 kmh 30.28 in1025.4 mb 0.00 in0.0 mm 0.00 in/hr0.0 mm/hr 0.00 in0.0 mm
08:00 AM 54.6°F12.6°C 43.4°F6.3°C 66% 3.0 mph NW4.8 kmh NW 7.0 mph11.3 kmh 30.28 in1025.4 mb 0.00 in0.0 mm 0.00 in/hr0.0 mm/hr 0.00 in0.0 mm
08:05 AM 54.6°F12.6°C 43.4°F6.3°C 66% 2.0 mph NNW3.2 kmh NNW 6.0 mph9.7 kmh 30.28 in1025.4 mb 0.00 in0.0 mm 0.00 in/hr0.0 mm/hr 0.00 in0.0 mm
08:10 AM 54.7°F12.6°C 43.5°F6.4°C 66% 1.0 mph N1.6 kmh N 6.0 mph9.7 kmh 30.28 in1025.4 mb 0.00 in0.0 mm 0.00 in/hr0.0 mm/hr 0.00 in0.0 mm
08:15 AM 54.9°F12.7°C 43.7°F6.5°C 66% 5.0 mph N8.0 kmh N 5.0 mph8.0 kmh 30.29 in1025.7 mb 0.00 in0.0 mm 0.00 in/hr0.0 mm/hr 0.00 in0.0 mm
08:20 AM 55.1°F12.8°C 43.9°F6.6°C 66% 1.0 mph 1.6 kmh 5.0 mph8.0 kmh 30.29 in1025.7 mb 0.00 in0.0 mm 0.00 in/hr0.0 mm/hr 0.00 in0.0 mm
08:25 AM 55.5°F13.1°C 44.3°F6.8°C 66% 1.0 mph 1.6 kmh 8.0 mph12.9 kmh 30.29 in1025.7 mb 0.00 in0.0 mm 0.00 in/hr0.0 mm/hr 0.00 in0.0 mm
08:30 AM 55.7°F13.2°C 44.1°F6.7°C 65% 3.0 mph N4.8 kmh N 6.0 mph9.7 kmh 30.29 in1025.7 mb 0.00 in0.0 mm 0.00 in/hr0.0 mm/hr 0.00 in0.0 mm
08:35 AM 55.9°F13.3°C 44.3°F6.8°C 65% 1.0 mph NW1.6 kmh NW 7.0 mph11.3 kmh 30.29 in1025.7 mb 0.00 in0.0 mm 0.00 in/hr0.0 mm/hr 0.00 in0.0 mm
08:40 AM 56.2°F13.4°C 44.5°F6.9°C 65% 4.0 mph NNW6.4 kmh NNW 6.0 mph9.7 kmh 30.30 in1026.1 mb 0.00 in0.0 mm 0.00 in/hr0.0 mm/hr 0.00 in0.0 mm
08:45 AM 56.4°F13.6°C 44.7°F7.1°C 65% 1.0 mph ENE1.6 kmh ENE 4.0 mph6.4 kmh 30.30 in1026.1 mb 0.00 in0.0 mm 0.00 in/hr0.0 mm/hr 0.00 in0.0 mm
08:50 AM 56.5°F13.6°C 44.4°F6.9°C 64% Calm Calm 7.0 mph11.3 kmh 30.30 in1026.1 mb 0.00 in0.0 mm 0.00 in/hr0.0 mm/hr 0.00 in0.0 mm
08:55 AM 56.7°F13.7°C 44.6°F7.0°C 64% Calm Calm 10.0 mph16.1 kmh 30.30 in1026.1 mb 0.00 in0.0 mm 0.00 in/hr0.0 mm/hr 0.00 in0.0 mm
09:00 AM 56.9°F13.8°C 44.8°F7.1°C 64% 1.0 mph WSW1.6 kmh WSW 7.0 mph11.3 kmh 30.30 in1026.1 mb 0.00 in0.0 mm 0.00 in/hr0.0 mm/hr 0.00 in0.0 mm
09:05 AM 57.0°F13.9°C 44.9°F7.2°C 64% 1.0 mph ENE1.6 kmh ENE 6.0 mph9.7 kmh 30.30 in1026.1 mb 0.00 in0.0 mm 0.00 in/hr0.0 mm/hr 0.00 in0.0 mm
09:10 AM 57.1°F13.9°C 45.0°F7.2°C 64% 2.0 mph NE3.2 kmh NE 9.0 mph14.5 kmh 30.30 in1026.1 mb 0.00 in0.0 mm 0.00 in/hr0.0 mm/hr 0.00 in0.0 mm
09:15 AM 57.3°F14.1°C 45.2°F7.3°C 64% 6.0 mph NNW9.7 kmh NNW 4.0 mph6.4 kmh 30.30 in1026.1 mb 0.00 in0.0 mm 0.00 in/hr0.0 mm/hr 0.00 in0.0 mm
09:20 AM 57.5°F14.2°C 45.4°F7.4°C 64% 3.0 mph N4.8 kmh N 9.0 mph14.5 kmh 30.31 in1026.4 mb 0.00 in0.0 mm 0.00 in/hr0.0 mm/hr 0.00 in0.0 mm
09:25 AM 57.7°F14.3°C 45.1°F7.3°C 63% 3.0 mph NW4.8 kmh NW 8.0 mph12.9 kmh 30.31 in1026.4 mb 0.00 in0.0 mm 0.00 in/hr0.0 mm/hr 0.00 in0.0 mm
09:30 AM 58.0°F14.4°C 45.0°F7.2°C 62% 3.0 mph S4.8 kmh S 6.0 mph9.7 kmh 30.31 in1026.4 mb 0.00 in0.0 mm 0.00 in/hr0.0 mm/hr 0.00 in0.0 mm
09:35 AM 58.0°F14.4°C 45.0°F7.2°C 62% 5.0 mph SE8.0 kmh SE 10.0 mph16.1 kmh 30.31 in1026.4 mb 0.00 in0.0 mm 0.00 in/hr0.0 mm/hr 0.00 in0.0 mm
09:40 AM 58.2°F14.6°C 44.8°F7.1°C 61% 4.0 mph S6.4 kmh S 8.0 mph12.9 kmh 30.32 in1026.8 mb 0.00 in0.0 mm 0.00 in/hr0.0 mm/hr 0.00 in0.0 mm
09:45 AM 58.4°F14.7°C 45.0°F7.2°C 61% 2.0 mph SE3.2 kmh SE 7.0 mph11.3 kmh 30.32 in1026.8 mb 0.00 in0.0 mm 0.00 in/hr0.0 mm/hr 0.00 in0.0 mm
09:50 AM 58.6°F14.8°C 45.1°F7.3°C 61% 4.0 mph NW6.4 kmh NW 8.0 mph12.9 kmh 30.32 in1026.8 mb 0.00 in0.0 mm 0.00 in/hr0.0 mm/hr 0.00 in0.0 mm
09:55 AM 58.8°F14.9°C 44.9°F7.2°C 60% 1.0 mph SE1.6 kmh SE 7.0 mph11.3 kmh 30.32 in1026.8 mb 0.00 in0.0 mm 0.00 in/hr0.0 mm/hr 0.00 in0.0 mm
10:00 AM 59.1°F15.1°C 44.7°F7.1°C 59% 2.0 mph SSE3.2 kmh SSE 8.0 mph12.9 kmh 30.32 in1026.8 mb 0.00 in0.0 mm 0.00 in/hr0.0 mm/hr 0.00 in0.0 mm
10:05 AM 59.4°F15.2°C 45.0°F7.2°C 59% Calm Calm 6.0 mph9.7 kmh 30.32 in1026.8 mb 0.00 in0.0 mm 0.00 in/hr0.0 mm/hr 0.00 in0.0 mm
10:10 AM 59.6°F15.3°C 44.8°F7.1°C 58% 7.0 mph NNE11.3 kmh NNE 10.0 mph16.1 kmh 30.33 in1027.1 mb 0.00 in0.0 mm 0.00 in/hr0.0 mm/hr 0.00 in0.0 mm
10:15 AM 59.7°F15.4°C 44.8°F7.1°C 58% 2.0 mph S3.2 kmh S 11.0 mph17.7 kmh 30.33 in1027.1 mb 0.00 in0.0 mm 0.00 in/hr0.0 mm/hr 0.00 in0.0 mm
10:20 AM 59.7°F15.4°C 44.8°F7.1°C 58% 2.0 mph SW3.2 kmh SW 7.0 mph11.3 kmh 30.33 in1027.1 mb 0.00 in0.0 mm 0.00 in/hr0.0 mm/hr 0.00 in0.0 mm
10:25 AM 59.8°F15.4°C 44.5°F6.9°C 57% 4.0 mph S6.4 kmh S 10.0 mph16.1 kmh 30.33 in1027.1 mb 0.00 in0.0 mm 0.00 in/hr0.0 mm/hr 0.00 in0.0 mm
10:30 AM 60.0°F15.6°C 44.7°F7.1°C 57% 4.0 mph S6.4 kmh S 12.0 mph19.3 kmh 30.33 in1027.1 mb 0.00 in0.0 mm 0.00 in/hr0.0 mm/hr 0.00 in0.0 mm
10:35 AM 60.2°F15.7°C 44.9°F7.2°C 57% 3.0 mph NW4.8 kmh NW 10.0 mph16.1 kmh 30.33 in1027.1 mb 0.00 in0.0 mm 0.00 in/hr0.0 mm/hr 0.00 in0.0 mm
10:40 AM 60.5°F15.8°C 45.1°F7.3°C 57% 1.0 mph SE1.6 kmh SE 5.0 mph8.0 kmh 30.33 in1027.1 mb 0.00 in0.0 mm 0.00 in/hr0.0 mm/hr 0.00 in0.0 mm
10:45 AM 61.0°F16.1°C 45.1°F7.3°C 56% Calm Calm 6.0 mph9.7 kmh 30.33 in1027.1 mb 0.00 in0.0 mm 0.00 in/hr0.0 mm/hr 0.00 in0.0 mm
10:50 AM 61.5°F16.4°C 45.6°F7.6°C 56% 2.0 mph ESE3.2 kmh ESE 4.0 mph6.4 kmh 30.33 in1027.1 mb 0.00 in0.0 mm 0.00 in/hr0.0 mm/hr 0.00 in0.0 mm
10:55 AM 61.6°F16.4°C 45.2°F7.3°C 55% 4.0 mph S6.4 kmh S 7.0 mph11.3 kmh 30.33 in1027.1 mb 0.00 in0.0 mm 0.00 in/hr0.0 mm/hr 0.00 in0.0 mm
11:00 AM 61.8°F16.6°C 44.9°F7.2°C 54% 2.0 mph SE3.2 kmh SE 5.0 mph8.0 kmh 30.34 in1027.4 mb 0.00 in0.0 mm 0.00 in/hr0.0 mm/hr 0.00 in0.0 mm
11:05 AM 61.7°F16.5°C 44.8°F7.1°C 54% 2.0 mph WSW3.2 kmh WSW 7.0 mph11.3 kmh 30.34 in1027.4 mb 0.00 in0.0 mm 0.00 in/hr0.0 mm/hr 0.00 in0.0 mm
11:10 AM 61.9°F16.6°C 45.0°F7.2°C 54% Calm Calm 9.0 mph14.5 kmh 30.34 in1027.4 mb 0.00 in0.0 mm 0.00 in/hr0.0 mm/hr 0.00 in0.0 mm
11:15 AM 62.5°F16.9°C 45.6°F7.6°C 54% 6.0 mph SW9.7 kmh SW 6.0 mph9.7 kmh 30.34 in1027.4 mb 0.00 in0.0 mm 0.00 in/hr0.0 mm/hr 0.00 in0.0 mm
11:20 AM 62.4°F16.9°C 44.5°F6.9°C 52% 4.0 mph SE6.4 kmh SE 7.0 mph11.3 kmh 30.34 in1027.4 mb 0.00 in0.0 mm 0.00 in/hr0.0 mm/hr 0.00 in0.0 mm
11:25 AM 62.5°F16.9°C 45.1°F7.3°C 53% 1.0 mph SE1.6 kmh SE 6.0 mph9.7 kmh 30.34 in1027.4 mb 0.00 in0.0 mm 0.00 in/hr0.0 mm/hr 0.00 in0.0 mm
11:30 AM 62.9°F17.2°C 45.5°F7.5°C 53% 3.0 mph ESE4.8 kmh ESE 7.0 mph11.3 kmh 30.34 in1027.4 mb 0.00 in0.0 mm 0.00 in/hr0.0 mm/hr 0.00 in0.0 mm
11:35 AM 63.0°F17.2°C 45.0°F7.2°C 52% 3.0 mph S4.8 kmh S 7.0 mph11.3 kmh 30.34 in1027.4 mb 0.00 in0.0 mm 0.00 in/hr0.0 mm/hr 0.00 in0.0 mm
11:40 AM 63.0°F17.2°C 45.0°F7.2°C 52% 3.0 mph SE4.8 kmh SE 8.0 mph12.9 kmh 30.35 in1027.8 mb 0.00 in0.0 mm 0.00 in/hr0.0 mm/hr 0.00 in0.0 mm
11:45 AM 63.3°F17.4°C 44.8°F7.1°C 51% 2.0 mph E3.2 kmh E 7.0 mph11.3 kmh 30.34 in1027.4 mb 0.00 in0.0 mm 0.00 in/hr0.0 mm/hr 0.00 in0.0 mm
11:50 AM 63.5°F17.5°C 45.0°F7.2°C 51% 2.0 mph NNE3.2 kmh NNE 6.0 mph9.7 kmh 30.34 in1027.4 mb 0.00 in0.0 mm 0.00 in/hr0.0 mm/hr 0.00 in0.0 mm
11:55 AM 63.5°F17.5°C 45.0°F7.2°C 51% 3.0 mph S4.8 kmh S 9.0 mph14.5 kmh 30.34 in1027.4 mb 0.00 in0.0 mm 0.00 in/hr0.0 mm/hr 0.00 in0.0 mm
12:00 PM 63.8°F17.7°C 45.3°F7.4°C 51% 3.0 mph S4.8 kmh S 7.0 mph11.3 kmh 30.34 in1027.4 mb 0.00 in0.0 mm 0.00 in/hr0.0 mm/hr 0.00 in0.0 mm
12:05 PM 63.9°F17.7°C 45.4°F7.4°C 51% 3.0 mph S4.8 kmh S 5.0 mph8.0 kmh 30.34 in1027.4 mb 0.00 in0.0 mm 0.00 in/hr0.0 mm/hr 0.00 in0.0 mm
12:10 PM 64.2°F17.9°C 45.1°F7.3°C 50% 3.0 mph WNW4.8 kmh WNW 7.0 mph11.3 kmh 30.34 in1027.4 mb 0.00 in0.0 mm 0.00 in/hr0.0 mm/hr 0.00 in0.0 mm
12:15 PM 64.4°F18.0°C 44.2°F6.8°C 48% 6.0 mph NNW9.7 kmh NNW 8.0 mph12.9 kmh 30.34 in1027.4 mb 0.00 in0.0 mm 0.00 in/hr0.0 mm/hr 0.00 in0.0 mm
12:20 PM 64.3°F17.9°C 44.7°F7.1°C 49% 4.0 mph E6.4 kmh E 9.0 mph14.5 kmh 30.34 in1027.4 mb 0.00 in0.0 mm 0.00 in/hr0.0 mm/hr 0.00 in0.0 mm
12:25 PM 64.2°F17.9°C 44.6°F7.0°C 49% 4.0 mph SE6.4 kmh SE 11.0 mph17.7 kmh 30.34 in1027.4 mb 0.00 in0.0 mm 0.00 in/hr0.0 mm/hr 0.00 in0.0 mm
12:30 PM 64.5°F18.1°C 45.4°F7.4°C 50% Calm Calm 5.0 mph8.0 kmh 30.34 in1027.4 mb 0.00 in0.0 mm 0.00 in/hr0.0 mm/hr 0.00 in0.0 mm
12:35 PM 64.7°F18.2°C 45.0°F7.2°C 49% 4.0 mph SSW6.4 kmh SSW 16.0 mph25.7 kmh 30.34 in1027.4 mb 0.00 in0.0 mm 0.00 in/hr0.0 mm/hr 0.00 in0.0 mm
12:40 PM 64.5°F18.1°C 44.3°F6.8°C 48% 3.0 mph WSW4.8 kmh WSW 10.0 mph16.1 kmh 30.33 in1027.1 mb 0.00 in0.0 mm 0.00 in/hr0.0 mm/hr 0.00 in0.0 mm
12:45 PM 64.9°F18.3°C 45.2°F7.3°C 49% 2.0 mph ESE3.2 kmh ESE 7.0 mph11.3 kmh 30.33 in1027.1 mb 0.00 in0.0 mm 0.00 in/hr0.0 mm/hr 0.00 in0.0 mm
12:50 PM 65.3°F18.5°C 45.0°F7.2°C 48% 4.0 mph WNW6.4 kmh WNW 9.0 mph14.5 kmh 30.33 in1027.1 mb 0.00 in0.0 mm 0.00 in/hr0.0 mm/hr 0.00 in0.0 mm
12:55 PM 65.4°F18.6°C 45.1°F7.3°C 48% Calm Calm 8.0 mph12.9 kmh 30.33 in1027.1 mb 0.00 in0.0 mm 0.00 in/hr0.0 mm/hr 0.00 in0.0 mm
01:00 PM 65.4°F18.6°C 45.1°F7.3°C 48% 4.0 mph SE6.4 kmh SE 7.0 mph11.3 kmh 30.33 in1027.1 mb 0.00 in0.0 mm 0.00 in/hr0.0 mm/hr 0.00 in0.0 mm
01:05 PM 65.5°F18.6°C 44.7°F7.1°C 47% 1.0 mph ESE1.6 kmh ESE 7.0 mph11.3 kmh 30.33 in1027.1 mb 0.00 in0.0 mm 0.00 in/hr0.0 mm/hr 0.00 in0.0 mm
01:10 PM 65.7°F18.7°C 45.4°F7.4°C 48% 2.0 mph SE3.2 kmh SE 7.0 mph11.3 kmh 30.33 in1027.1 mb 0.00 in0.0 mm 0.00 in/hr0.0 mm/hr 0.00 in0.0 mm
01:15 PM 65.2°F18.4°C 45.0°F7.2°C 48% 2.0 mph SW3.2 kmh SW 14.0 mph22.5 kmh 30.33 in1027.1 mb 0.00 in0.0 mm 0.00 in/hr0.0 mm/hr 0.00 in0.0 mm
01:20 PM 65.2°F18.4°C 45.0°F7.2°C 48% 3.0 mph NW4.8 kmh NW 11.0 mph17.7 kmh 30.32 in1026.8 mb 0.00 in0.0 mm 0.00 in/hr0.0 mm/hr 0.00 in0.0 mm
01:25 PM 65.4°F18.6°C 44.6°F7.0°C 47% 4.0 mph NE6.4 kmh NE 10.0 mph16.1 kmh 30.32 in1026.8 mb 0.00 in0.0 mm 0.00 in/hr0.0 mm/hr 0.00 in0.0 mm
01:30 PM 64.9°F18.3°C 44.1°F6.7°C 47% Calm Calm 11.0 mph17.7 kmh 30.32 in1026.8 mb 0.00 in0.0 mm 0.00 in/hr0.0 mm/hr 0.00 in0.0 mm
01:35 PM 65.0°F18.3°C 45.3°F7.4°C 49% 2.0 mph SW3.2 kmh SW 9.0 mph14.5 kmh 30.32 in1026.8 mb 0.00 in0.0 mm 0.00 in/hr0.0 mm/hr 0.00 in0.0 mm
01:40 PM 65.4°F18.6°C 45.1°F7.3°C 48% 11.0 mph E17.7 kmh E 11.0 mph17.7 kmh 30.32 in1026.8 mb 0.00 in0.0 mm 0.00 in/hr0.0 mm/hr 0.00 in0.0 mm
01:45 PM 65.5°F18.6°C 45.8°F7.7°C 49% 2.0 mph WNW3.2 kmh WNW 10.0 mph16.1 kmh 30.32 in1026.8 mb 0.00 in0.0 mm 0.00 in/hr0.0 mm/hr 0.00 in0.0 mm
01:50 PM 65.4°F18.6°C 44.6°F7.0°C 47% 2.0 mph ENE3.2 kmh ENE 12.0 mph19.3 kmh 30.32 in1026.8 mb 0.00 in0.0 mm 0.00 in/hr0.0 mm/hr 0.00 in0.0 mm
01:55 PM 65.0°F18.3°C 44.2°F6.8°C 47% 5.0 mph N8.0 kmh N 11.0 mph17.7 kmh 30.31 in1026.4 mb 0.00 in0.0 mm 0.00 in/hr0.0 mm/hr 0.00 in0.0 mm
02:00 PM 65.0°F18.3°C 44.2°F6.8°C 47% 6.0 mph E9.7 kmh E 10.0 mph16.1 kmh 30.31 in1026.4 mb 0.00 in0.0 mm 0.00 in/hr0.0 mm/hr 0.00 in0.0 mm
02:05 PM 65.3°F18.5°C 44.5°F6.9°C 47% 2.0 mph SE3.2 kmh SE 11.0 mph17.7 kmh 30.31 in1026.4 mb 0.00 in0.0 mm 0.00 in/hr0.0 mm/hr 0.00 in0.0 mm
02:10 PM 65.9°F18.8°C 45.0°F7.2°C 47% 1.0 mph E1.6 kmh E 5.0 mph8.0 kmh 30.32 in1026.8 mb 0.00 in0.0 mm 0.00 in/hr0.0 mm/hr 0.00 in0.0 mm
02:15 PM 66.3°F19.1°C 44.8°F7.1°C 46% 3.0 mph NW4.8 kmh NW 11.0 mph17.7 kmh 30.31 in1026.4 mb 0.00 in0.0 mm 0.00 in/hr0.0 mm/hr 0.00 in0.0 mm
02:20 PM 66.3°F19.1°C 44.8°F7.1°C 46% 3.0 mph E4.8 kmh E 6.0 mph9.7 kmh 30.31 in1026.4 mb 0.00 in0.0 mm 0.00 in/hr0.0 mm/hr 0.00 in0.0 mm
02:25 PM 66.2°F19.0°C 44.8°F7.1°C 46% 5.0 mph WSW8.0 kmh WSW 8.0 mph12.9 kmh 30.31 in1026.4 mb 0.00 in0.0 mm 0.00 in/hr0.0 mm/hr 0.00 in0.0 mm
02:30 PM 66.3°F19.1°C 44.8°F7.1°C 46% 4.0 mph SE6.4 kmh SE 5.0 mph8.0 kmh 30.31 in1026.4 mb 0.00 in0.0 mm 0.00 in/hr0.0 mm/hr 0.00 in0.0 mm
02:35 PM 66.7°F19.3°C 45.2°F7.3°C 46% 1.0 mph W1.6 kmh W 8.0 mph12.9 kmh 30.30 in1026.1 mb 0.00 in0.0 mm 0.00 in/hr0.0 mm/hr 0.00 in0.0 mm
02:40 PM 65.8°F18.8°C 44.4°F6.9°C 46% 3.0 mph NNW4.8 kmh NNW 13.0 mph20.9 kmh 30.30 in1026.1 mb 0.00 in0.0 mm 0.00 in/hr0.0 mm/hr 0.00 in0.0 mm
02:45 PM 66.3°F19.1°C 44.3°F6.8°C 45% 5.0 mph NNW8.0 kmh NNW 9.0 mph14.5 kmh 30.30 in1026.1 mb 0.00 in0.0 mm 0.00 in/hr0.0 mm/hr 0.00 in0.0 mm
02:50 PM 66.0°F18.9°C 44.0°F6.7°C 45% 4.0 mph NW6.4 kmh NW 12.0 mph19.3 kmh 30.31 in1026.4 mb 0.00 in0.0 mm 0.00 in/hr0.0 mm/hr 0.00 in0.0 mm
02:55 PM 66.3°F19.1°C 44.8°F7.1°C 46% 3.0 mph SSW4.8 kmh SSW 10.0 mph16.1 kmh 30.31 in1026.4 mb 0.00 in0.0 mm 0.00 in/hr0.0 mm/hr 0.00 in0.0 mm
03:00 PM 66.1°F18.9°C 43.5°F6.4°C 44% 7.0 mph N11.3 kmh N 14.0 mph22.5 kmh 30.30 in1026.1 mb 0.00 in0.0 mm 0.00 in/hr0.0 mm/hr 0.00 in0.0 mm
03:05 PM 65.9°F18.8°C 43.3°F6.3°C 44% 3.0 mph NW4.8 kmh NW 11.0 mph17.7 kmh 30.30 in1026.1 mb 0.00 in0.0 mm 0.00 in/hr0.0 mm/hr 0.00 in0.0 mm
03:10 PM 66.2°F19.0°C 44.2°F6.8°C 45% 2.0 mph SSE3.2 kmh SSE 9.0 mph14.5 kmh 30.30 in1026.1 mb 0.00 in0.0 mm 0.00 in/hr0.0 mm/hr 0.00 in0.0 mm
03:15 PM 66.3°F19.1°C 43.1°F6.2°C 43% 1.0 mph E1.6 kmh E 8.0 mph12.9 kmh 30.30 in1026.1 mb 0.00 in0.0 mm 0.00 in/hr0.0 mm/hr 0.00 in0.0 mm
03:20 PM 66.2°F19.0°C 43.6°F6.4°C 44% Calm Calm 8.0 mph12.9 kmh 30.30 in1026.1 mb 0.00 in0.0 mm 0.00 in/hr0.0 mm/hr 0.00 in0.0 mm
03:25 PM 66.8°F19.3°C 44.7°F7.1°C 45% 11.0 mph NNE17.7 kmh NNE 11.0 mph17.7 kmh 30.30 in1026.1 mb 0.00 in0.0 mm 0.00 in/hr0.0 mm/hr 0.00 in0.0 mm
03:30 PM 66.8°F19.3°C 44.1°F6.7°C 44% 1.0 mph SE1.6 kmh SE 9.0 mph14.5 kmh 30.30 in1026.1 mb 0.00 in0.0 mm 0.00 in/hr0.0 mm/hr 0.00 in0.0 mm
03:35 PM 66.5°F19.2°C 43.3°F6.3°C 43% 11.0 mph N17.7 kmh N 12.0 mph19.3 kmh 30.30 in1026.1 mb 0.00 in0.0 mm 0.00 in/hr0.0 mm/hr 0.00 in0.0 mm
03:40 PM 66.2°F19.0°C 43.6°F6.4°C 44% 3.0 mph NW4.8 kmh NW 10.0 mph16.1 kmh 30.30 in1026.1 mb 0.00 in0.0 mm 0.00 in/hr0.0 mm/hr 0.00 in0.0 mm
03:45 PM 66.3°F19.1°C 43.7°F6.5°C 44% 2.0 mph SSW3.2 kmh SSW 6.0 mph9.7 kmh 30.30 in1026.1 mb 0.00 in0.0 mm 0.00 in/hr0.0 mm/hr 0.00 in0.0 mm
03:50 PM 66.4°F19.1°C 43.8°F6.6°C 44% 4.0 mph N6.4 kmh N 11.0 mph17.7 kmh 30.30 in1026.1 mb 0.00 in0.0 mm 0.00 in/hr0.0 mm/hr 0.00 in0.0 mm
03:55 PM 66.4°F19.1°C 43.8°F6.6°C 44% 1.0 mph N1.6 kmh N 7.0 mph11.3 kmh 30.30 in1026.1 mb 0.00 in0.0 mm 0.00 in/hr0.0 mm/hr 0.00 in0.0 mm
04:00 PM 66.5°F19.2°C 43.9°F6.6°C 44% 4.0 mph S6.4 kmh S 8.0 mph12.9 kmh 30.30 in1026.1 mb 0.00 in0.0 mm 0.00 in/hr0.0 mm/hr 0.00 in0.0 mm
04:05 PM 66.4°F19.1°C 43.2°F6.2°C 43% 1.0 mph SSE1.6 kmh SSE 6.0 mph9.7 kmh 30.30 in1026.1 mb 0.00 in0.0 mm 0.00 in/hr0.0 mm/hr 0.00 in0.0 mm
04:10 PM 66.4°F19.1°C 43.2°F6.2°C 43% 7.0 mph NW11.3 kmh NW 7.0 mph11.3 kmh 30.30 in1026.1 mb 0.00 in0.0 mm 0.00 in/hr0.0 mm/hr 0.00 in0.0 mm
04:15 PM 66.2°F19.0°C 43.0°F6.1°C 43% 8.0 mph N12.9 kmh N 8.0 mph12.9 kmh 30.29 in1025.7 mb 0.00 in0.0 mm 0.00 in/hr0.0 mm/hr 0.00 in0.0 mm
04:20 PM 66.1°F18.9°C 43.5°F6.4°C 44% 2.0 mph SSW3.2 kmh SSW 8.0 mph12.9 kmh 30.30 in1026.1 mb 0.00 in0.0 mm 0.00 in/hr0.0 mm/hr 0.00 in0.0 mm
04:25 PM 66.3°F19.1°C 43.1°F6.2°C 43% 2.0 mph SW3.2 kmh SW 9.0 mph14.5 kmh 30.30 in1026.1 mb 0.00 in0.0 mm 0.00 in/hr0.0 mm/hr 0.00 in0.0 mm
04:30 PM 66.1°F18.9°C 42.9°F6.1°C 43% 3.0 mph NW4.8 kmh NW 6.0 mph9.7 kmh 30.30 in1026.1 mb 0.00 in0.0 mm 0.00 in/hr0.0 mm/hr 0.00 in0.0 mm
04:35 PM 66.1°F18.9°C 43.5°F6.4°C 44% 2.0 mph ESE3.2 kmh ESE 6.0 mph9.7 kmh 30.30 in1026.1 mb 0.00 in0.0 mm 0.00 in/hr0.0 mm/hr 0.00 in0.0 mm
04:40 PM 66.2°F19.0°C 43.0°F6.1°C 43% 3.0 mph SSE4.8 kmh SSE 6.0 mph9.7 kmh 30.30 in1026.1 mb 0.00 in0.0 mm 0.00 in/hr0.0 mm/hr 0.00 in0.0 mm
04:45 PM 66.2°F19.0°C 42.4°F5.8°C 42% 9.0 mph NNW14.5 kmh NNW 9.0 mph14.5 kmh 30.30 in1026.1 mb 0.00 in0.0 mm 0.00 in/hr0.0 mm/hr 0.00 in0.0 mm
04:50 PM 66.3°F19.1°C 42.5°F5.8°C 42% 2.0 mph WSW3.2 kmh WSW 9.0 mph14.5 kmh 30.30 in1026.1 mb 0.00 in0.0 mm 0.00 in/hr0.0 mm/hr 0.00 in0.0 mm
04:55 PM 66.4°F19.1°C 43.2°F6.2°C 43% 1.0 mph SE1.6 kmh SE 5.0 mph8.0 kmh 30.30 in1026.1 mb 0.00 in0.0 mm 0.00 in/hr0.0 mm/hr 0.00 in0.0 mm
05:00 PM 66.5°F19.2°C 41.4°F5.2°C 40% Calm Calm 9.0 mph14.5 kmh 30.30 in1026.1 mb 0.00 in0.0 mm 0.00 in/hr0.0 mm/hr 0.00 in0.0 mm
05:05 PM 66.2°F19.0°C 41.7°F5.4°C 41% Calm Calm 8.0 mph12.9 kmh 30.30 in1026.1 mb 0.00 in0.0 mm 0.00 in/hr0.0 mm/hr 0.00 in0.0 mm
05:10 PM 66.2°F19.0°C 41.1°F5.1°C 40% 2.0 mph ESE3.2 kmh ESE 8.0 mph12.9 kmh 30.30 in1026.1 mb 0.00 in0.0 mm 0.00 in/hr0.0 mm/hr 0.00 in0.0 mm
05:15 PM 66.0°F18.9°C 41.6°F5.3°C 41% 1.0 mph SSE1.6 kmh SSE 7.0 mph11.3 kmh 30.30 in1026.1 mb 0.00 in0.0 mm 0.00 in/hr0.0 mm/hr 0.00 in0.0 mm
05:20 PM 65.8°F18.8°C 41.4°F5.2°C 41% Calm Calm 7.0 mph11.3 kmh 30.30 in1026.1 mb 0.00 in0.0 mm 0.00 in/hr0.0 mm/hr 0.00 in0.0 mm
05:25 PM 65.8°F18.8°C 41.4°F5.2°C 41% Calm Calm 6.0 mph9.7 kmh 30.30 in1026.1 mb 0.00 in0.0 mm 0.00 in/hr0.0 mm/hr 0.00 in0.0 mm
05:30 PM 65.7°F18.7°C 41.3°F5.2°C 41% 1.0 mph E1.6 kmh E 5.0 mph8.0 kmh 30.30 in1026.1 mb 0.00 in0.0 mm 0.00 in/hr0.0 mm/hr 0.00 in0.0 mm
05:35 PM 65.8°F18.8°C 42.0°F5.6°C 42% 3.0 mph SE4.8 kmh SE 4.0 mph6.4 kmh 30.31 in1026.4 mb 0.00 in0.0 mm 0.00 in/hr0.0 mm/hr 0.00 in0.0 mm
05:40 PM 65.6°F18.7°C 41.8°F5.4°C 42% 2.0 mph SE3.2 kmh SE 5.0 mph8.0 kmh 30.31 in1026.4 mb 0.00 in0.0 mm 0.00 in/hr0.0 mm/hr 0.00 in0.0 mm
05:45 PM 65.1°F18.4°C 40.8°F4.9°C 41% Calm Calm 4.0 mph6.4 kmh 30.31 in1026.4 mb 0.00 in0.0 mm 0.00 in/hr0.0 mm/hr 0.00 in0.0 mm
05:50 PM 64.9°F18.3°C 40.6°F4.8°C 41% 2.0 mph NNW3.2 kmh NNW 3.0 mph4.8 kmh 30.31 in1026.4 mb 0.00 in0.0 mm 0.00 in/hr0.0 mm/hr 0.00 in0.0 mm
05:55 PM 64.8°F18.2°C 41.1°F5.1°C 42% Calm Calm 9.0 mph14.5 kmh 30.31 in1026.4 mb 0.00 in0.0 mm 0.00 in/hr0.0 mm/hr 0.00 in0.0 mm
06:00 PM 64.4°F18.0°C 40.8°F4.9°C 42% 2.0 mph NW3.2 kmh NW 6.0 mph9.7 kmh 30.31 in1026.4 mb 0.00 in0.0 mm 0.00 in/hr0.0 mm/hr 0.00 in0.0 mm
06:05 PM 64.0°F17.8°C 40.4°F4.7°C 42% 1.0 mph NE1.6 kmh NE 7.0 mph11.3 kmh 30.31 in1026.4 mb 0.00 in0.0 mm 0.00 in/hr0.0 mm/hr 0.00 in0.0 mm
06:10 PM 63.5°F17.5°C 40.5°F4.7°C 43% Calm Calm 6.0 mph9.7 kmh 30.31 in1026.4 mb 0.00 in0.0 mm 0.00 in/hr0.0 mm/hr 0.00 in0.0 mm
06:15 PM 62.9°F17.2°C 40.0°F4.4°C 43% 4.0 mph NW6.4 kmh NW 7.0 mph11.3 kmh 30.32 in1026.8 mb 0.00 in0.0 mm 0.00 in/hr0.0 mm/hr 0.00 in0.0 mm
06:20 PM 62.4°F16.9°C 39.6°F4.2°C 43% 1.0 mph SW1.6 kmh SW 5.0 mph8.0 kmh 30.32 in1026.8 mb 0.00 in0.0 mm 0.00 in/hr0.0 mm/hr 0.00 in0.0 mm
06:25 PM 62.0°F16.7°C 39.2°F4.0°C 43% Calm Calm 2.0 mph3.2 kmh 30.32 in1026.8 mb 0.00 in0.0 mm 0.00 in/hr0.0 mm/hr 0.00 in0.0 mm
06:30 PM 61.6°F16.4°C 38.8°F3.8°C 43% Calm Calm 4.0 mph6.4 kmh 30.32 in1026.8 mb 0.00 in0.0 mm 0.00 in/hr0.0 mm/hr 0.00 in0.0 mm
06:35 PM 61.3°F16.3°C 38.6°F3.7°C 43% Calm Calm 3.0 mph4.8 kmh 30.32 in1026.8 mb 0.00 in0.0 mm 0.00 in/hr0.0 mm/hr 0.00 in0.0 mm
06:40 PM 60.9°F16.1°C 38.8°F3.8°C 44% Calm Calm 2.0 mph3.2 kmh 30.32 in1026.8 mb 0.00 in0.0 mm 0.00 in/hr0.0 mm/hr 0.00 in0.0 mm
06:45 PM 60.6°F15.9°C 39.1°F3.9°C 45% Calm Calm 3.0 mph4.8 kmh 30.32 in1026.8 mb 0.00 in0.0 mm 0.00 in/hr0.0 mm/hr 0.00 in0.0 mm
06:50 PM 60.3°F15.7°C 39.4°F4.1°C 46% Calm Calm 1.0 mph1.6 kmh 30.32 in1026.8 mb 0.00 in0.0 mm 0.00 in/hr0.0 mm/hr 0.00 in0.0 mm
06:55 PM 60.0°F15.6°C 39.7°F4.3°C 47% Calm Calm 1.0 mph1.6 kmh 30.32 in1026.8 mb 0.00 in0.0 mm 0.00 in/hr0.0 mm/hr 0.00 in0.0 mm